Terminal Aerodrome Forecast
Issued by NWS

Home | Current Version | Previous Version | Text Only | Print | Product List | Glossary On
Versions: 1 2 3 4 5 6 7 8 9 10 11 12 13 14 15
718
FTPA31 PHFO 052332
TAFHJR
TAF
PHJR 052332Z 0600/0624 18008KT P6SM VCSH SCT025 SCT050
     FM060500 VRB04KT P6SM SCT025 SCT050
     FM062000 15008KT P6SM SCT025 SCT050=

USA.gov is the U.S. government's official web portal to all federal, state and local government web resources and services.